Time;durP1;ratioP1;P1;durP2;ratioP2;P2;SDS_P1;SDS_P2;PMS_P1;PMS_P2;Temp;Humidity;BMP_temperature;BMP_pressure;BME280_temperature;BME280_humidity;BME280_pressure;Samples;Min_cycle;Max_cycle;Signal;HPM_P1;HPM_P2
2022/09/29 00:03:39;;;;;;;10.07;6.80;;;;;;;8.63;100.00;99092.83;5220261;56;1136850;-67
2022/09/29 00:08:45;;;;;;;8.80;6.87;;;;;;;8.62;100.00;99092.48;5186209;56;1144110;-65
2022/09/29 00:13:54;;;;;;;11.37;7.33;;;;;;;8.63;100.00;99096.77;5129959;57;1136953;-70
2022/09/29 00:19:00;;;;;;;10.93;8.40;;;;;;;8.66;100.00;99099.13;5190742;56;1139001;-68
2022/09/29 00:24:06;;;;;;;10.47;7.80;;;;;;;8.67;100.00;99099.97;5218521;56;1138975;-64
2022/09/29 00:29:12;;;;;;;7.87;6.97;;;;;;;8.67;100.00;99099.97;5219603;56;1138995;-69
2022/09/29 00:34:18;;;;;;;12.50;8.07;;;;;;;8.66;100.00;99101.77;5175624;56;1136908;-65
2022/09/29 00:39:24;;;;;;;12.30;8.40;;;;;;;8.65;100.00;99103.23;5174297;56;1139030;-65
2022/09/29 00:45:07;;;;;;;11.40;8.37;;;;;;;8.62;100.00;99104.34;5191466;57;1139005;-69
2022/09/29 00:50:22;;;;;;;9.97;7.70;;;;;;;8.59;100.00;99094.55;5203113;56;1139283;-69
2022/09/29 00:55:38;;;;;;;6.87;6.10;;;;;;;8.57;100.00;99099.97;5215780;56;1136785;-67
2022/09/29 01:00:44;;;;;;;8.40;7.50;;;;;;;8.57;100.00;99096.01;5222442;56;1136938;-70
2022/09/29 01:05:59;;;;;;;12.30;6.90;;;;;;;8.57;100.00;99103.09;5218186;56;1136930;-69
2022/09/29 01:11:06;;;;;;;7.25;6.55;;;;;;;8.58;100.00;99106.06;5195798;56;1139265;-66
2022/09/29 01:16:12;;;;;;;7.03;6.13;;;;;;;8.58;100.00;99111.34;5194989;56;1136941;-67
2022/09/29 01:21:44;;;;;;;6.83;5.93;;;;;;;8.52;100.00;99114.55;5193063;56;1136915;-71
2022/09/29 01:27:29;;;;;;;8.00;6.07;;;;;;;8.46;100.00;99125.16;5191352;57;1136847;-70
2022/09/29 01:32:39;;;;;;;6.83;5.50;;;;;;;8.42;100.00;99122.45;5202221;56;1134811;-69
2022/09/29 01:38:05;;;;;;;8.73;6.47;;;;;;;8.41;100.00;99136.09;5222024;56;1134850;-69
2022/09/29 01:43:15;;;;;;;8.07;7.13;;;;;;;8.39;100.00;99134.60;5219933;56;1134754;-68
2022/09/29 01:48:28;;;;;;;9.27;6.87;;;;;;;8.41;100.00;99140.05;5219835;56;1134929;-68
2022/09/29 01:53:39;;;;;;;11.33;6.67;;;;;;;8.38;100.00;99141.67;5219641;56;1134813;-67
2022/09/29 01:58:56;;;;;;;6.07;5.00;;;;;;;8.40;100.00;99144.97;5219862;56;1134925;-67
2022/09/29 02:04:07;;;;;;;10.03;7.10;;;;;;;8.37;100.00;99150.55;5219406;56;1136945;-66
2022/09/29 02:09:18;;;;;;;8.40;5.93;;;;;;;8.31;100.00;99151.53;5176670;56;1138939;-63
2022/09/29 02:14:29;;;;;;;8.83;5.73;;;;;;;8.30;100.00;99149.88;5129566;57;1136932;-71
2022/09/29 02:19:40;;;;;;;13.93;7.97;;;;;;;8.31;100.00;99151.05;5150985;56;1136953;-68
2022/09/29 02:24:46;;;;;;;8.30;7.50;;;;;;;8.31;100.00;99151.53;5156382;56;1139025;-66
2022/09/29 02:29:52;;;;;;;10.47;7.23;;;;;;;8.30;100.00;99152.50;5156398;56;1136892;-68
2022/09/29 02:34:58;;;;;;;9.53;7.43;;;;;;;8.28;100.00;99164.48;5208681;56;1139099;-64
2022/09/29 02:40:43;;;;;;;7.07;6.10;;;;;;;8.27;100.00;99166.77;5220648;56;1137262;-66
2022/09/29 02:46:17;;;;;;;10.33;9.07;;;;;;;8.27;100.00;99169.41;5222165;56;1136911;-69
2022/09/29 02:51:31;;;;;;;9.08;8.10;;;;;;;8.21;100.00;99163.88;5222556;56;1138909;-68
2022/09/29 02:56:59;;;;;;;16.67;11.20;;;;;;;8.25;100.00;99177.92;5222193;56;1137473;-69
2022/09/29 03:02:05;;;;;;;14.07;11.10;;;;;;;8.22;100.00;99176.91;5219259;56;1141015;-70
2022/09/29 03:07:11;;;;;;;11.68;9.70;;;;;;;8.24;100.00;99192.58;5220316;56;1141059;-68
2022/09/29 03:12:17;;;;;;;19.73;10.17;;;;;;;8.27;100.00;99194.91;5191857;57;1138993;-70
2022/09/29 03:17:24;;;;;;;20.27;11.53;;;;;;;8.30;100.00;99190.22;5202801;56;1141273;-67
2022/09/29 03:22:30;;;;;;;13.83;11.60;;;;;;;8.34;100.00;99200.03;5222504;56;1141195;-64
2022/09/29 03:27:37;;;;;;;15.10;11.12;;;;;;;8.33;100.00;99207.58;5222439;56;1138882;-67
2022/09/29 03:32:44;;;;;;;14.37;12.87;;;;;;;8.36;100.00;99214.73;5211081;56;1138990;-67
2022/09/29 03:37:50;;;;;;;17.23;13.63;;;;;;;8.44;100.00;99221.94;5095838;57;1138971;-65
2022/09/29 03:42:55;;;;;;;14.40;12.07;;;;;;;8.45;100.00;99217.86;5134948;57;1139040;-66
2022/09/29 03:48:01;;;;;;;12.20;10.45;;;;;;;8.46;100.00;99222.64;5134165;57;1139179;-67
2022/09/29 03:53:08;;;;;;;14.17;11.57;;;;;;;8.48;100.00;99221.19;5104420;57;1139201;-69
2022/09/29 03:58:14;;;;;;;11.60;10.40;;;;;;;8.47;100.00;99225.63;5134294;57;1138999;-70
2022/09/29 04:03:20;;;;;;;16.03;11.50;;;;;;;8.49;100.00;99232.91;5134471;56;1139108;-69
2022/09/29 04:08:26;;;;;;;13.43;11.87;;;;;;;8.49;100.00;99235.55;5129509;56;1138977;-67
2022/09/29 04:13:33;;;;;;;12.60;11.23;;;;;;;8.48;100.00;99243.59;5133156;56;1138985;-67
2022/09/29 04:18:40;;;;;;;17.27;13.77;;;;;;;8.51;100.00;99252.05;5150814;56;1139023;-69
2022/09/29 04:23:47;;;;;;;15.90;12.70;;;;;;;8.50;100.00;99258.30;5142202;57;1139115;-66
2022/09/29 04:28:53;;;;;;;18.50;12.97;;;;;;;8.49;100.00;99268.48;5177049;56;1139063;-68
2022/09/29 04:33:59;;;;;;;17.83;14.67;;;;;;;8.46;100.00;99267.43;5142281;56;1139047;-66
2022/09/29 04:39:06;;;;;;;17.93;13.70;;;;;;;8.42;100.00;99264.23;5072884;57;1139023;-68
2022/09/29 04:44:12;;;;;;;17.37;13.93;;;;;;;8.33;100.00;99274.27;5142563;57;1139112;-70
2022/09/29 04:49:19;;;;;;;19.03;14.23;;;;;;;8.33;100.00;99280.86;5156608;56;1139226;-66
2022/09/29 04:54:24;;;;;;;19.73;14.00;;;;;;;8.30;100.00;99284.20;5156669;56;1136920;-70
2022/09/29 04:59:30;;;;;;;21.30;14.50;;;;;;;8.27;100.00;99281.35;5152705;56;1137000;-69
2022/09/29 05:04:36;;;;;;;19.00;12.03;;;;;;;8.26;100.00;99282.32;5155960;56;1141000;-64
2022/09/29 05:09:42;;;;;;;17.17;13.93;;;;;;;8.27;100.00;99289.25;5153605;56;1141045;-67
2022/09/29 05:14:48;;;;;;;16.50;12.23;;;;;;;8.28;100.00;99291.41;5155294;56;1141115;-69
2022/09/29 05:19:53;;;;;;;14.63;12.50;;;;;;;8.29;100.00;99295.71;5156482;56;1141228;-67
2022/09/29 05:24:59;;;;;;;16.07;11.67;;;;;;;8.31;100.00;99299.05;5150821;56;1141075;-65
2022/09/29 05:30:05;;;;;;;17.90;12.37;;;;;;;8.30;100.00;99305.28;5079730;56;1141134;-66
2022/09/29 05:35:11;;;;;;;15.80;12.73;;;;;;;8.30;100.00;99308.75;5075205;57;1141103;-67
2022/09/29 05:40:18;;;;;;;16.93;13.70;;;;;;;8.31;100.00;99313.05;5065075;57;1141082;-66
2022/09/29 05:45:24;;;;;;;18.70;14.73;;;;;;;8.29;100.00;99312.83;5132796;57;1141096;-67
2022/09/29 05:50:31;;;;;;;17.07;13.67;;;;;;;8.30;100.00;99315.34;5142846;57;1141075;-67
2022/09/29 05:55:39;;;;;;;13.83;11.90;;;;;;;8.32;100.00;99320.02;5142901;57;1141201;-67
2022/09/29 06:00:45;;;;;;;13.00;10.53;;;;;;;8.37;100.00;99323.09;5142773;57;1141132;-64
2022/09/29 06:05:50;;;;;;;14.13;11.30;;;;;;;8.38;100.00;99327.41;5142495;57;1141119;-65
2022/09/29 06:10:57;;;;;;;14.83;11.27;;;;;;;8.36;100.00;99329.81;5142118;57;1141086;-65
2022/09/29 06:16:03;;;;;;;13.43;10.72;;;;;;;8.37;100.00;99340.22;5142432;57;1141176;-66
2022/09/29 06:21:17;;;;;;;11.90;9.83;;;;;;;8.40;100.00;99341.25;5143138;56;1141076;-68
2022/09/29 06:26:23;;;;;;;13.65;10.58;;;;;;;8.40;100.00;99343.08;5143566;56;1138936;-66
2022/09/29 06:31:30;;;;;;;10.07;9.00;;;;;;;8.41;100.00;99342.08;5142105;57;1141000;-64
2022/09/29 06:42:10;;;;;;;15.47;9.20;;;;;;;8.38;100.00;99352.91;5143809;57;1137091;-65
2022/09/29 06:47:16;;;;;;;9.47;8.10;;;;;;;8.44;100.00;99340.50;5143532;57;1138971;-68
2022/09/29 06:52:22;;;;;;;8.90;8.00;;;;;;;8.47;100.00;99345.52;5104045;57;1136894;-64
2022/09/29 06:57:28;;;;;;;11.13;9.33;;;;;;;8.47;100.00;99341.56;5060088;58;1136825;-65
2022/09/29 07:02:34;;;;;;;10.73;8.87;;;;;;;8.49;100.00;99340.11;5060136;58;1139024;-68
2022/09/29 07:07:41;;;;;;;12.03;8.80;;;;;;;8.57;100.00;99342.41;5060149;58;1139229;-67
2022/09/29 07:12:47;;;;;;;15.90;10.28;;;;;;;8.63;100.00;99344.52;5115819;57;1138971;-67
2022/09/29 07:17:54;;;;;;;13.93;10.43;;;;;;;8.76;100.00;99345.58;5132082;57;1141349;-66
2022/09/29 07:23:00;;;;;;;11.43;9.27;;;;;;;8.82;100.00;99354.27;5132217;57;1141056;-64
2022/09/29 07:28:05;;;;;;;10.50;7.07;;;;;;;8.89;100.00;99362.45;5132079;57;1139022;-65
2022/09/29 07:33:13;;;;;;;11.63;8.20;;;;;;;9.01;100.00;99364.02;5177286;56;1138986;-66
2022/09/29 07:38:18;;;;;;;16.43;10.33;;;;;;;9.05;100.00;99371.50;5131986;57;1139004;-66
2022/09/29 07:43:24;;;;;;;13.30;9.93;;;;;;;9.02;100.00;99369.13;5134400;57;1141303;-64
2022/09/29 07:48:31;;;;;;;15.20;10.37;;;;;;;9.11;100.00;99380.68;5126044;57;1137129;-66
2022/09/29 07:53:37;;;;;;;12.83;9.00;;;;;;;9.20;100.00;99391.70;5099575;57;1139262;-69
2022/09/29 07:58:44;;;;;;;11.37;9.47;;;;;;;9.30;100.00;99390.41;5072957;58;1136935;-66
2022/09/29 08:03:54;;;;;;;16.33;9.37;;;;;;;9.36;100.00;99389.84;5072883;58;1136942;-63
2022/09/29 08:09:01;;;;;;;11.27;8.77;;;;;;;9.42;100.00;99395.90;5072853;58;1136932;-65
2022/09/29 08:14:09;;;;;;;12.97;10.30;;;;;;;9.52;100.00;99400.67;5071170;57;1137135;-65
2022/09/29 08:19:15;;;;;;;13.30;10.40;;;;;;;9.53;100.00;99399.70;5120032;57;1139001;-64
2022/09/29 08:24:21;;;;;;;10.23;8.77;;;;;;;9.57;100.00;99400.27;5131995;57;1139239;-67
2022/09/29 08:29:26;;;;;;;11.83;8.77;;;;;;;9.61;100.00;99400.34;5221354;56;1136922;-65
2022/09/29 08:34:33;;;;;;;11.23;9.03;;;;;;;9.71;100.00;99407.76;5154981;56;1136914;-66
2022/09/29 08:39:39;;;;;;;9.53;7.70;;;;;;;9.79;100.00;99414.47;5132105;57;1137247;-65
2022/09/29 08:44:53;;;;;;;9.73;7.93;;;;;;;9.81;100.00;99418.64;5131789;57;1134863;-66
2022/09/29 08:50:21;;;;;;;9.97;7.87;;;;;;;9.86;100.00;99415.59;5129679;57;1134793;-68
2022/09/29 08:55:37;;;;;;;8.33;7.53;;;;;;;9.91;100.00;99420.45;5220518;56;1136903;-66
2022/09/29 09:01:09;;;;;;;10.37;9.27;;;;;;;9.94;100.00;99422.30;5215519;56;1136930;-64
2022/09/29 09:06:25;;;;;;;8.00;7.13;;;;;;;10.01;100.00;99426.06;5220022;56;1139137;-68
2022/09/29 09:12:08;;;;;;;8.47;7.03;;;;;;;10.03;100.00;99438.64;5161073;56;1138993;-66
2022/09/29 09:17:41;;;;;;;8.47;7.67;;;;;;;10.10;100.00;99441.05;5171247;56;1139148;-65
2022/09/29 09:22:59;;;;;;;7.97;6.10;;;;;;;10.10;100.00;99441.05;5156825;56;1138912;-66
2022/09/29 09:28:09;;;;;;;7.10;6.50;;;;;;;10.18;100.00;99445.63;5219697;56;1139133;-67
2022/09/29 09:33:23;;;;;;;7.40;6.67;;;;;;;10.17;100.00;99454.05;5175554;56;1139016;-68
2022/09/29 09:38:36;;;;;;;8.53;7.35;;;;;;;10.17;100.00;99463.30;5128044;57;1138957;-67
2022/09/29 09:43:49;;;;;;;9.88;6.85;;;;;;;10.18;100.00;99468.09;5128601;57;1138874;-67
2022/09/29 09:49:20;;;;;;;9.07;6.73;;;;;;;10.22;100.00;99477.44;5131240;57;1136930;-67
2022/09/29 09:54:39;;;;;;;14.83;9.83;;;;;;;10.21;100.00;99485.86;5211216;56;1136870;-66
2022/09/29 10:00:10;;;;;;;6.90;6.20;;;;;;;10.29;100.00;99489.58;5222108;56;1138969;-66
2022/09/29 10:05:24;;;;;;;29.97;10.37;;;;;;;10.36;100.00;99492.84;5222724;56;1137081;-67
2022/09/29 10:10:32;;;;;;;8.27;7.23;;;;;;;10.35;100.00;99500.92;5085039;57;1139539;-66
2022/09/29 10:15:54;;;;;;;9.60;7.30;;;;;;;10.45;100.00;99500.39;5136169;57;1138895;-69
2022/09/29 10:21:00;;;;;;;10.72;8.90;;;;;;;10.70;100.00;99502.88;5156705;57;1138996;-66
2022/09/29 10:46:54;;;;;;;11.67;8.70;;;;;;;11.03;100.00;99494.89;5250821;56;46255;-67
2022/09/29 10:52:19;;;;;;;15.17;9.30;;;;;;;10.87;100.00;99517.52;4974871;58;1136924;-69
2022/09/29 10:57:30;;;;;;;9.30;7.00;;;;;;;10.92;100.00;99530.31;5047499;57;1141147;-64
2022/09/29 11:02:40;;;;;;;8.83;7.43;;;;;;;11.08;100.00;99524.39;5044452;58;1139038;-69
2022/09/29 11:07:52;;;;;;;8.87;6.37;;;;;;;11.09;100.00;99524.74;5026347;58;1139120;-67
2022/09/29 11:12:59;;;;;;;7.77;6.03;;;;;;;11.35;100.00;99525.71;5048754;58;1139086;-65
2022/09/29 11:18:27;;;;;;;12.30;8.77;;;;;;;11.76;100.00;99531.49;5018783;58;1138953;-69
2022/09/29 11:23:59;;;;;;;13.27;9.30;;;;;;;12.06;100.00;99542.20;4964958;58;1141265;-69
2022/09/29 11:29:51;;;;;;;13.10;9.47;;;;;;;12.26;100.00;99560.42;4943161;58;1141351;-67
2022/09/29 11:35:18;;;;;;;10.57;7.73;;;;;;;12.40;100.00;99557.71;4952856;59;1139241;-66
2022/09/29 11:41:03;;;;;;;11.10;9.00;;;;;;;12.63;98.99;99552.27;4963713;59;1139145;-65
2022/09/29 11:46:25;;;;;;;10.93;8.37;;;;;;;12.73;98.68;99559.27;5039406;58;1136969;-69
2022/09/29 11:52:05;;;;;;;7.40;6.62;;;;;;;12.84;98.33;99564.31;5052951;58;1139239;-65
2022/09/29 11:57:21;;;;;;;8.80;7.37;;;;;;;12.73;97.00;99561.92;4991499;58;1137032;-65
2022/09/29 12:03:02;;;;;;;14.33;8.60;;;;;;;12.69;98.45;99564.05;5050593;58;1137028;-66
2022/09/29 12:08:30;;;;;;;6.07;4.83;;;;;;;12.68;97.77;99564.55;5050711;58;1139290;-64
2022/09/29 12:14:05;;;;;;;6.00;5.40;;;;;;;12.65;96.74;99565.38;5052023;58;1136983;-65
2022/09/29 12:19:19;;;;;;;5.50;5.00;;;;;;;12.86;98.82;99563.66;5019580;58;1137169;-70
2022/09/29 12:24:45;;;;;;;7.63;4.67;;;;;;;13.08;95.47;99568.94;5052240;58;1136954;-68
2022/09/29 12:30:15;;;;;;;4.67;4.23;;;;;;;13.37;92.91;99567.61;5092808;57;1137040;-66
2022/09/29 12:35:37;;;;;;;5.53;4.87;;;;;;;13.53;92.65;99566.01;5121149;57;1134899;-69
2022/09/29 12:40:59;;;;;;;6.67;5.00;;;;;;;13.45;92.17;99573.44;5116001;57;1134939;-67
2022/09/29 12:46:35;;;;;;;5.73;5.00;;;;;;;13.28;90.70;99581.03;5098389;57;1135407;-68
2022/09/29 12:51:47;;;;;;;7.60;5.60;;;;;;;13.17;91.20;99583.45;5120440;57;1137042;-68
2022/09/29 12:57:05;;;;;;;5.10;3.80;;;;;;;13.29;92.16;99589.33;5066709;57;1136962;-68
2022/09/29 13:02:41;;;;;;;6.03;4.53;;;;;;;13.39;92.55;99584.72;5149960;57;1136928;-66
2022/09/29 13:08:03;;;;;;;4.53;4.13;;;;;;;13.42;91.85;99583.58;5150013;57;1136955;-70
2022/09/29 13:13:41;;;;;;;4.97;4.40;;;;;;;13.37;89.30;99592.02;5150085;57;1137175;-68
2022/09/29 13:19:06;;;;;;;5.73;5.23;;;;;;;13.29;90.47;99592.80;5149860;57;1136986;-66
2022/09/29 13:24:42;;;;;;;5.25;4.75;;;;;;;13.28;91.68;99592.98;5149012;57;1136953;-65
2022/09/29 13:29:53;;;;;;;5.07;4.43;;;;;;;13.27;90.66;99584.67;5114550;57;1137198;-66
2022/09/29 13:35:01;;;;;;;;;;;;;;;13.16;90.19;99591.56;5153570;56;1136922;-67
2022/09/29 13:40:09;;;;;;;8.63;4.97;;;;;;;13.17;91.16;99588.75;5153266;56;974209;-68
2022/09/29 13:45:23;;;;;;;4.90;4.13;;;;;;;13.20;90.66;99593.75;5038397;58;1132838;-65
2022/09/29 13:50:46;;;;;;;;;;;;;;;13.23;91.48;99590.79;5037023;58;1134849;-67
2022/09/29 13:56:11;;;;;;;4.23;3.83;;;;;;;13.36;91.56;99594.33;5036607;58;972263;-69
2022/09/29 14:01:35;;;;;;;6.10;5.50;;;;;;;13.38;90.71;99596.34;5031944;58;1132807;-69
2022/09/29 14:06:47;;;;;;;5.80;4.30;;;;;;;13.36;91.00;99596.98;5067312;58;1135110;-67
2022/09/29 14:11:54;;;;;;;7.13;4.37;;;;;;;13.35;90.37;99602.79;5009508;59;21161;-65
2022/09/29 14:17:26;;;;;;;6.35;5.67;;;;;;;13.35;89.91;99608.59;4991278;58;1132689;-69
2022/09/29 14:22:45;;;;;;;5.00;4.50;;;;;;;13.31;88.98;99613.38;5067044;58;1137297;-65
2022/09/29 14:28:04;;;;;;;3.67;3.37;;;;;;;13.35;90.25;99619.22;5066904;58;1136971;-67
2022/09/29 14:33:36;;;;;;;12.93;8.57;;;;;;;13.44;89.75;99619.61;5073494;57;1136985;-65
2022/09/29 14:38:55;;;;;;;3.70;3.40;;;;;;;13.43;89.70;99625.91;5141564;57;1139324;-68
2022/09/29 14:44:08;;;;;;;4.87;4.33;;;;;;;13.36;87.59;99632.34;5085328;57;1136961;-69
2022/09/29 14:55:18;;;;;;;24.30;12.23;;;;;;;13.39;89.66;99635.19;5034369;58;1136945;-65
2022/09/29 15:00:28;;;;;;;22.57;10.20;;;;;;;13.34;89.10;99636.14;5031738;58;1139067;-66
2022/09/29 15:05:36;;;;;;;9.73;5.73;;;;;;;13.32;88.67;99644.76;5028558;58;1139074;-69
2022/09/29 15:10:41;;;;;;;12.53;7.83;;;;;;;13.27;88.92;99645.75;5117006;57;1135126;-70
2022/09/29 15:15:49;;;;;;;8.17;7.30;;;;;;;13.25;88.24;99651.22;5117142;58;1136970;-64
2022/09/29 15:21:08;;;;;;;17.50;10.60;;;;;;;13.20;89.11;99653.99;5117243;57;1134889;-67
2022/09/29 15:26:15;;;;;;;6.90;5.50;;;;;;;13.17;89.67;99667.08;5109264;57;1139077;-69
2022/09/29 15:31:29;;;;;;;24.70;16.47;;;;;;;13.14;89.21;99666.02;5038951;57;1135091;-67
2022/09/29 15:36:39;;;;;;;;;;;;;;;13.15;90.00;99670.38;5047287;58;1138759;-67
2022/09/29 15:41:44;;;;;;;45.97;28.30;;;;;;;13.15;90.59;99673.03;5044357;58;972211;-68
2022/09/29 15:46:54;;;;;;;57.37;29.10;;;;;;;13.12;91.01;99679.98;5038482;58;1136948;-64
2022/09/29 15:52:11;;;;;;;54.73;27.00;;;;;;;13.11;90.95;99684.11;5055257;58;1139312;-67
2022/09/29 15:57:58;;;;;;;60.10;33.03;;;;;;;13.10;91.28;99693.06;5058548;57;1141054;-67
2022/09/29 16:03:18;;;;;;;35.53;16.87;;;;;;;13.11;91.71;99699.55;5057862;58;1141098;-67
2022/09/29 16:08:27;;;;;;;27.13;17.20;;;;;;;13.18;92.06;99701.94;5046746;57;1141122;-70
2022/09/29 16:13:39;;;;;;;74.50;38.90;;;;;;;13.20;92.28;99705.27;5057543;57;1141387;-67
2022/09/29 16:18:48;;;;;;;85.07;43.20;;;;;;;13.21;92.41;99712.75;5055300;58;1141437;-64
2022/09/29 16:24:17;;;;;;;143.00;88.00;;;;;;;13.19;92.42;99718.70;5058423;57;1141079;-65
2022/09/29 16:29:28;;;;;;;30.67;13.43;;;;;;;13.11;92.78;99715.97;5054487;58;1143217;-69
2022/09/29 16:34:34;;;;;;;27.90;15.37;;;;;;;13.00;92.72;99718.36;5055414;57;1141362;-67
2022/09/29 16:39:46;;;;;;;70.17;35.23;;;;;;;12.87;92.78;99715.27;5058386;57;1141088;-65
2022/09/29 16:44:54;;;;;;;80.87;43.90;;;;;;;12.79;93.16;99721.84;5058254;58;1141168;-69
2022/09/29 16:50:05;;;;;;;51.53;22.83;;;;;;;12.78;94.36;99713.55;5041529;57;1141537;-67
2022/09/29 16:55:27;;;;;;;52.83;23.70;;;;;;;12.80;94.94;99723.52;5037152;58;1141114;-64
2022/09/29 17:00:33;;;;;;;45.25;20.30;;;;;;;12.75;95.18;99736.39;5038952;57;1141152;-64
2022/09/29 17:05:46;;;;;;;46.23;17.10;;;;;;;12.66;95.46;99737.66;5038890;57;1141217;-66
2022/09/29 17:10:53;;;;;;;37.80;17.50;;;;;;;12.62;95.55;99738.11;5038946;57;1141218;-70
2022/09/29 17:15:59;;;;;;;72.40;24.97;;;;;;;12.60;95.95;99746.70;5013471;58;1139228;-66
2022/09/29 17:21:05;;;;;;;90.20;38.53;;;;;;;12.58;96.13;99753.97;4995518;57;1139023;-67
2022/09/29 17:31:44;;;;;;;61.93;27.97;;;;;;;12.35;96.10;99762.02;4986204;58;1138989;-67
2022/09/29 17:36:49;;;;;;;94.63;40.63;;;;;;;12.20;96.38;99769.64;4899305;59;1139185;-69
2022/09/29 17:41:55;;;;;;;65.40;31.10;;;;;;;12.13;96.77;99778.66;5092224;57;1139021;-64
2022/09/29 17:47:01;;;;;;;177.53;81.00;;;;;;;12.10;97.01;99789.55;5115746;57;1139101;-66
2022/09/29 17:52:09;;;;;;;132.93;87.53;;;;;;;12.04;96.98;99794.13;5117070;57;1141157;-68
2022/09/29 17:57:26;;;;;;;113.37;67.93;;;;;;;11.99;97.20;99795.05;5116362;57;1141082;-65
2022/09/29 18:02:31;;;;;;;98.27;57.67;;;;;;;11.92;96.63;99803.22;5112758;57;1139046;-67
2022/09/29 18:07:37;;;;;;;58.07;27.57;;;;;;;11.83;97.01;99802.77;5116845;57;1137052;-70
2022/09/29 18:12:44;;;;;;;82.57;35.38;;;;;;;11.73;97.02;99800.63;5133307;57;1141159;-70
2022/09/29 18:17:51;;;;;;;109.67;46.85;;;;;;;11.64;96.52;99807.59;5045777;57;1141134;-67
2022/09/29 18:22:59;;;;;;;203.03;90.33;;;;;;;11.55;96.70;99821.22;5091551;57;1143240;-67
2022/09/29 18:28:05;;;;;;;168.22;68.12;;;;;;;11.40;96.48;99826.61;5116004;57;1143137;-72
2022/09/29 18:33:16;;;;;;;146.57;60.67;;;;;;;11.25;96.41;99819.59;5116674;57;1143181;-69
2022/09/29 18:38:23;;;;;;;170.17;69.87;;;;;;;11.14;96.75;99831.65;5117060;57;1143197;-67
2022/09/29 18:43:29;;;;;;;143.67;59.43;;;;;;;11.09;97.29;99831.70;5116940;57;1143354;-70
2022/09/29 18:48:35;;;;;;;144.87;64.00;;;;;;;11.06;97.30;99834.63;5115773;58;1143174;-70
2022/09/29 18:53:41;;;;;;;148.40;64.17;;;;;;;11.04;97.06;99833.44;5062330;58;1143242;-69
2022/09/29 18:58:47;;;;;;;115.70;52.60;;;;;;;11.01;97.05;99844.29;5116106;58;1143165;-69
2022/09/29 19:03:53;;;;;;;160.57;75.70;;;;;;;10.94;97.13;99857.73;5150822;56;1143132;-72
2022/09/29 19:08:59;;;;;;;170.10;92.88;;;;;;;10.86;96.98;99875.60;5115983;58;1143229;-68
2022/09/29 19:14:07;;;;;;;53.90;28.90;;;;;;;10.75;96.73;99873.08;5150597;57;1143263;-70
2022/09/29 19:19:12;;;;;;;25.70;15.13;;;;;;;10.57;96.27;99869.41;5114066;58;1141082;-70
2022/09/29 19:24:21;;;;;;;69.73;33.07;;;;;;;10.50;96.44;99886.80;5150452;57;1141011;-72
2022/09/29 19:29:25;;;;;;;115.43;58.97;;;;;;;10.48;97.30;99895.34;5116475;57;1141168;-67
2022/09/29 19:34:34;;;;;;;147.83;65.93;;;;;;;10.46;97.40;99886.70;5150681;57;1143226;-69
2022/09/29 19:39:41;;;;;;;137.27;53.17;;;;;;;10.34;97.23;99889.94;5150201;57;1143220;-67
2022/09/29 19:44:47;;;;;;;137.93;58.80;;;;;;;10.18;97.07;99886.91;5115386;58;1143231;-69
2022/09/29 19:51:48;;;;;;;103.38;47.90;;;;;;;10.09;97.14;99892.96;5062968;58;1143222;-67
2022/09/29 19:55:04;;;;;;;95.60;43.23;;;;;;;10.00;96.77;99904.33;5062631;58;1143275;-67
2022/09/29 20:00:10;;;;;;;90.93;44.30;;;;;;;9.82;96.65;99896.98;5116100;58;1141288;-64
2022/09/29 20:05:18;;;;;;;58.57;27.63;;;;;;;9.72;96.99;99889.50;5063016;58;1139113;-70
2022/09/29 20:10:26;;;;;;;70.03;34.10;;;;;;;9.62;97.43;99901.80;5034286;57;1139077;-72
2022/09/29 20:15:31;;;;;;;69.27;25.63;;;;;;;9.57;97.53;99911.91;5116479;57;1139031;-68
2022/09/29 20:20:42;;;;;;;68.20;29.73;;;;;;;9.57;97.63;99917.66;5125336;57;1139110;-66
2022/09/29 20:25:46;;;;;;;52.83;24.77;;;;;;;9.56;97.60;99915.50;5150539;56;1139022;-65
2022/09/29 20:30:57;;;;;;;59.13;26.30;;;;;;;9.55;97.55;99921.75;5151009;56;1139176;-71
2022/09/29 20:36:04;;;;;;;47.60;17.83;;;;;;;9.42;97.12;99919.77;5150898;56;1139194;-67
2022/09/29 20:41:11;;;;;;;65.20;28.43;;;;;;;9.21;96.82;99928.95;5150692;56;1139004;-66
2022/09/29 20:46:17;;;;;;;55.47;26.17;;;;;;;9.09;96.92;99938.70;5150894;57;1139312;-66
2022/09/29 20:51:25;;;;;;;60.27;25.10;;;;;;;9.05;97.10;99931.15;5140319;57;1139053;-67
2022/09/29 20:56:39;;;;;;;28.23;14.77;;;;;;;9.05;97.56;99935.10;5117512;57;1139021;-68
2022/09/29 21:01:41;;;;;;;22.87;11.10;;;;;;;8.90;97.08;99937.66;5117011;57;1136876;-72
2022/09/29 21:06:50;;;;;;;32.97;14.07;;;;;;;8.84;97.66;99942.95;5117452;57;1136994;-67
2022/09/29 21:11:56;;;;;;;56.83;26.23;;;;;;;8.82;97.32;99948.83;5117601;57;1136964;-71
2022/09/29 21:17:02;;;;;;;53.77;27.03;;;;;;;8.83;97.44;99952.30;5117415;57;1136974;-68
2022/09/29 21:22:09;;;;;;;36.57;20.00;;;;;;;8.78;97.19;99954.81;5075327;57;1137175;-65
2022/09/29 21:27:16;;;;;;;38.63;20.00;;;;;;;8.62;96.34;99952.19;5044410;57;1137014;-66
2022/09/29 21:32:29;;;;;;;19.80;12.57;;;;;;;8.48;96.99;99959.86;5040330;58;1137059;-69
2022/09/29 21:37:36;;;;;;;30.03;13.60;;;;;;;8.43;97.31;99969.42;5039033;57;1136982;-68
2022/09/29 21:42:42;;;;;;;53.23;21.17;;;;;;;8.36;97.02;99972.67;5080143;57;1137009;-71
2022/09/29 21:53:12;;;;;;;46.63;20.52;;;;;;;8.32;96.23;99990.98;5133827;57;1136946;-69
2022/09/29 21:58:17;;;;;;;55.60;24.30;;;;;;;8.15;96.39;100000.13;5150479;57;1134926;-68
2022/09/29 22:03:24;;;;;;;68.13;25.60;;;;;;;8.04;96.73;99999.64;5150356;57;1137183;-70
2022/09/29 22:08:31;;;;;;;87.40;31.03;;;;;;;7.95;96.62;99993.72;5170325;57;21532;-67
2022/09/29 22:13:37;;;;;;;82.53;24.07;;;;;;;7.75;96.63;100004.45;5150505;56;1133181;-64
2022/09/29 22:18:43;;;;;;;63.45;20.82;;;;;;;7.69;96.90;100009.31;5150412;56;1141380;-67
2022/09/29 22:24:02;;;;;;;60.93;20.90;;;;;;;7.67;96.69;100017.31;5150824;56;1141001;-66
2022/09/29 22:29:08;;;;;;;44.47;16.97;;;;;;;7.72;97.58;100019.14;5150410;56;1141572;-70
2022/09/29 22:34:15;;;;;;;29.97;13.43;;;;;;;7.73;97.18;100012.09;5150336;56;1141156;-70
2022/09/29 22:39:20;;;;;;;61.03;21.53;;;;;;;7.66;97.28;100007.73;5144366;56;1141158;-65
2022/09/29 22:44:26;;;;;;;124.00;39.97;;;;;;;7.64;97.46;100016.70;5116268;57;1139008;-68
2022/09/29 22:49:32;;;;;;;176.90;56.77;;;;;;;7.55;97.16;100032.70;5150148;57;1141733;-66
2022/09/29 22:54:38;;;;;;;43.17;17.00;;;;;;;7.46;96.94;100037.33;5129855;57;1143536;-66
2022/09/29 22:59:44;;;;;;;50.23;18.83;;;;;;;7.36;96.69;100057.33;5116904;57;1141201;-70
2022/09/29 23:04:50;;;;;;;53.50;18.67;;;;;;;7.34;97.23;100057.91;5116877;57;1141220;-67
2022/09/29 23:09:55;;;;;;;127.30;35.17;;;;;;;7.36;97.26;100052.91;5116831;57;1141203;-67
2022/09/29 23:15:01;;;;;;;277.70;72.43;;;;;;;7.40;97.58;100070.16;5116953;57;1141317;-67
2022/09/29 23:20:09;;;;;;;303.67;73.33;;;;;;;7.31;97.28;100081.36;5116899;57;1141339;-67
2022/09/29 23:25:14;;;;;;;191.73;45.40;;;;;;;7.24;97.29;100080.56;5116806;57;1143660;-65
2022/09/29 23:30:20;;;;;;;227.80;53.87;;;;;;;7.22;97.63;100089.88;5116935;57;1143197;-68
2022/09/29 23:35:26;;;;;;;134.03;31.97;;;;;;;7.18;97.83;100093.66;5091480;57;1143221;-67
2022/09/29 23:40:31;;;;;;;45.43;17.63;;;;;;;7.18;98.40;100086.28;5112347;57;1141212;-69
2022/09/29 23:45:38;;;;;;;69.33;19.93;;;;;;;7.15;98.31;100085.17;5100793;57;1139086;-68
2022/09/29 23:50:44;;;;;;;39.73;13.27;;;;;;;7.16;99.03;100071.92;5117480;57;1139127;-64
2022/09/29 23:55:50;;;;;;;27.27;12.10;;;;;;;7.24;99.07;100084.04;5117464;57;1141711;-66
